Radcliffe, IA (50230)

4:39 AM CDT on September 02, 2014 (GMT -0500)
Iowa Falls Municipal | Change Station
CLOSE
Current Station
Airport
Location: Iowa Falls,
Elevation: 1138 ft
Nearby Weather Stations

Elev 1138 ft 42.47 °N, 93.27 °W | Updated 24 minutes ago

Overcast
Overcast
62 °F
Feels Like 62 °F
N
10
Wind Variable Wind from NNW

Today
High -- | Low -- °F
--% Chance of Precip.
Yesterday
High -- | Low -- °F
Precip. -- in
6:40 AM 7:45 PM
Waxing Crescent, 49% visible
Pressure 29.90 in
Visibility 10.0 miles
Clouds Overcast 9500 ft
Dew Point 58 °F
Humidity 86%
Rainfall 0.24 in
Snow Depth Not available.
UV 0 out of 12
Pollen 2.80 out of 12
Air Quality Not available.
Flu Activity Not available.
METAR KIFA 020915Z AUTO 33009KT 10SM OVC095 17/14 A2990 RMK AO2 T01660143

More Conditions Fewer Conditions

Pressure 29.90 in
Visibility 10.0 miles
Clouds Overcast 9500 ft
Dew Point 58 °F
Humidity 86%
Rainfall 0.24 in
Snow Depth Not available.
UV 0 out of 12
Pollen 2.80 out of 12
Air Quality Not available.
Flu Activity Not available.
METAR KIFA 020915Z AUTO 33009KT 10SM OVC095 17/14 A2990 RMK AO2 T01660143

More Conditions Fewer Conditions

10-Day Weather Forecast

Almanac

Astronomy

Sep. 02, 2014 Rise Set
Actual Time 6:40 AM CDT 7:45 PM CDT
Civil Twilight 6:11 AM CDT 8:14 PM CDT
Nautical Twilight 5:36 AM CDT 8:48 PM CDT
Astronomical Twilight 5:00 AM CDT 9:24 PM CDT
Moon 2:33 PM CDT No Moon Set
Length of Visible Light 14h 03m
Length of Day
13h 05m
Tomorrow will be 2m 45s shorter.
Waxing Crescent, 49% of the Moon is Illuminated
Today
Waxing Crescent
Sep 2
First Quarter
Sep 8
Full
Sep 15
Last Quarter
Sep 24
New

Today's Extremes

State Highs State Lows

Community

WunderPhotos

Upload Photos

1,749,587 photos uploaded!

WunderBlogs® & News

Nearby

Snow Depth

Station Depth Elevation
No new snow has been reported.

Earthquake Activity

City Distance Mag. Time & Date
No recent earthquake activity has been reported nearby.
Minimum magnitude displayed is 2.5.

Coastal Water Temperatures

Place Temperature
No Stations Reporting

Nearby Weather Stations